sensor_id;sensor_type;location;lat;lon;timestamp;pressure;altitude;pressure_sealevel;temperature;humidity
22389;BME280;11362;48.102;11.620;2023-02-20T00:00:00;96196.16;;;23.52;35.94
22389;BME280;11362;48.102;11.620;2023-02-20T00:02:25;96196.53;;;23.51;35.86
22389;BME280;11362;48.102;11.620;2023-02-20T00:04:50;96202.88;;;23.51;35.82
22389;BME280;11362;48.102;11.620;2023-02-20T00:07:16;96198.13;;;23.52;35.84
22389;BME280;11362;48.102;11.620;2023-02-20T00:09:41;96210.00;;;23.52;35.72
22389;BME280;11362;48.102;11.620;2023-02-20T00:12:06;96215.56;;;23.52;35.75
22389;BME280;11362;48.102;11.620;2023-02-20T00:14:32;96209.25;;;23.52;35.60
22389;BME280;11362;48.102;11.620;2023-02-20T00:16:57;96208.44;;;23.51;36.15
22389;BME280;11362;48.102;11.620;2023-02-20T00:19:22;96216.34;;;23.49;35.62
22389;BME280;11362;48.102;11.620;2023-02-20T00:21:49;96215.56;;;23.49;35.71
22389;BME280;11362;48.102;11.620;2023-02-20T00:24:15;96227.44;;;23.49;35.59
22389;BME280;11362;48.102;11.620;2023-02-20T00:26:48;96211.59;;;23.50;35.57
22389;BME280;11362;48.102;11.620;2023-02-20T00:29:15;96214.38;;;23.50;35.38
22389;BME280;11362;48.102;11.620;2023-02-20T00:31:41;96208.81;;;23.50;35.11
22389;BME280;11362;48.102;11.620;2023-02-20T00:34:06;96210.81;;;23.49;35.86
22389;BME280;11362;48.102;11.620;2023-02-20T00:36:32;96200.91;;;23.48;35.43
22389;BME280;11362;48.102;11.620;2023-02-20T00:38:57;96203.25;;;23.46;35.41
22389;BME280;11362;48.102;11.620;2023-02-20T00:41:22;96205.66;;;23.48;35.40
22389;BME280;11362;48.102;11.620;2023-02-20T00:43:47;96200.91;;;23.48;35.27
22389;BME280;11362;48.102;11.620;2023-02-20T00:46:13;96197.34;;;23.48;35.31
22389;BME280;11362;48.102;11.620;2023-02-20T00:48:38;96204.06;;;23.47;35.21
22389;BME280;11362;48.102;11.620;2023-02-20T00:51:04;96212.38;;;23.47;35.47
22389;BME280;11362;48.102;11.620;2023-02-20T00:53:29;96208.81;;;23.46;35.29
22389;BME280;11362;48.102;11.620;2023-02-20T00:55:54;96206.84;;;23.47;35.19
22389;BME280;11362;48.102;11.620;2023-02-20T00:58:20;96214.34;;;23.46;35.21
22389;BME280;11362;48.102;11.620;2023-02-20T01:00:45;96209.22;;;23.48;35.25
22389;BME280;11362;48.102;11.620;2023-02-20T01:03:10;96194.94;;;23.46;35.05
22389;BME280;11362;48.102;11.620;2023-02-20T01:05:36;96206.03;;;23.46;35.19
22389;BME280;11362;48.102;11.620;2023-02-20T01:08:01;96196.94;;;23.46;35.17
22389;BME280;11362;48.102;11.620;2023-02-20T01:10:26;96192.16;;;23.46;35.06
22389;BME280;11362;48.102;11.620;2023-02-20T01:12:51;96189.41;;;23.46;35.15
22389;BME280;11362;48.102;11.620;2023-02-20T01:15:17;96197.31;;;23.44;35.19
22389;BME280;11362;48.102;11.620;2023-02-20T01:17:42;96197.31;;;23.44;35.05
22389;BME280;11362;48.102;11.620;2023-02-20T01:20:08;96202.88;;;23.44;35.08
22389;BME280;11362;48.102;11.620;2023-02-20T01:22:34;96201.28;;;23.43;35.02
22389;BME280;11362;48.102;11.620;2023-02-20T01:24:59;96195.75;;;23.43;34.92
22389;BME280;11362;48.102;11.620;2023-02-20T01:27:24;96200.91;;;23.45;34.96
22389;BME280;11362;48.102;11.620;2023-02-20T01:29:49;96200.47;;;23.43;35.05
22389;BME280;11362;48.102;11.620;2023-02-20T01:32:15;96195.75;;;23.43;34.95
22389;BME280;11362;48.102;11.620;2023-02-20T01:34:40;96192.97;;;23.43;34.81
22389;BME280;11362;48.102;11.620;2023-02-20T01:37:05;96200.09;;;23.44;34.89
22389;BME280;11362;48.102;11.620;2023-02-20T01:39:31;96196.53;;;23.44;34.89
22389;BME280;11362;48.102;11.620;2023-02-20T01:42:01;96182.66;;;23.44;34.77
22389;BME280;11362;48.102;11.620;2023-02-20T01:44:29;96189.00;;;23.44;34.80
22389;BME280;11362;48.102;11.620;2023-02-20T01:46:56;96193.34;;;23.45;34.79
22389;BME280;11362;48.102;11.620;2023-02-20T01:49:40;96193.34;;;23.45;34.71
22389;BME280;11362;48.102;11.620;2023-02-20T01:52:25;96199.72;;;23.46;34.78
22389;BME280;11362;48.102;11.620;2023-02-20T01:54:58;96198.91;;;23.45;34.70
22389;BME280;11362;48.102;11.620;2023-02-20T01:57:27;96189.81;;;23.45;34.77
22389;BME280;11362;48.102;11.620;2023-02-20T01:59:58;96181.50;;;23.45;34.62
22389;BME280;11362;48.102;11.620;2023-02-20T02:02:29;96181.88;;;23.43;34.46
22389;BME280;11362;48.102;11.620;2023-02-20T02:04:56;96182.66;;;23.44;34.44
22389;BME280;11362;48.102;11.620;2023-02-20T02:07:21;96185.44;;;23.44;34.62
22389;BME280;11362;48.102;11.620;2023-02-20T02:10:03;96168.78;;;23.44;34.60
22389;BME280;11362;48.102;11.620;2023-02-20T02:12:31;96168.78;;;23.44;34.62
22389;BME280;11362;48.102;11.620;2023-02-20T02:14:56;96174.34;;;23.44;34.61
22389;BME280;11362;48.102;11.620;2023-02-20T02:28:32;96171.97;;;23.42;34.57
22389;BME280;11362;48.102;11.620;2023-02-20T02:34:02;96169.97;;;23.43;34.24
22389;BME280;11362;48.102;11.620;2023-02-20T02:36:57;96168.00;;;23.43;34.37
22389;BME280;11362;48.102;11.620;2023-02-20T02:44:56;96156.91;;;23.43;34.37
22389;BME280;11362;48.102;11.620;2023-02-20T02:47:34;96155.34;;;23.42;34.25
22389;BME280;11362;48.102;11.620;2023-02-20T02:50:07;96148.22;;;23.42;34.57
22389;BME280;11362;48.102;11.620;2023-02-20T02:52:35;96153.75;;;23.42;34.38
22389;BME280;11362;48.102;11.620;2023-02-20T02:55:03;96159.31;;;23.42;34.47
22389;BME280;11362;48.102;11.620;2023-02-20T02:57:29;96161.66;;;23.43;34.44
22389;BME280;11362;48.102;11.620;2023-02-20T03:00:22;96167.22;;;23.43;34.27
22389;BME280;11362;48.102;11.620;2023-02-20T03:05:19;96157.69;;;23.40;34.15
22389;BME280;11362;48.102;11.620;2023-02-20T03:07:50;96151.75;;;23.42;34.22
22389;BME280;11362;48.102;11.620;2023-02-20T03:10:19;96162.06;;;23.42;34.16
22389;BME280;11362;48.102;11.620;2023-02-20T03:12:48;96159.31;;;23.42;34.15
22389;BME280;11362;48.102;11.620;2023-02-20T03:15:26;96162.06;;;23.42;34.18
22389;BME280;11362;48.102;11.620;2023-02-20T03:20:22;96170.41;;;23.42;34.24
22389;BME280;11362;48.102;11.620;2023-02-20T03:22:52;96177.09;;;23.40;34.28
22389;BME280;11362;48.102;11.620;2023-02-20T03:25:30;96155.72;;;23.41;34.18
22389;BME280;11362;48.102;11.620;2023-02-20T03:28:00;96150.19;;;23.41;34.23
22389;BME280;11362;48.102;11.620;2023-02-20T03:30:31;96145.03;;;23.39;34.23
22389;BME280;11362;48.102;11.620;2023-02-20T03:33:06;96148.22;;;23.42;34.08
22389;BME280;11362;48.102;11.620;2023-02-20T03:35:37;96155.34;;;23.42;34.17
22389;BME280;11362;48.102;11.620;2023-02-20T03:38:05;96148.22;;;23.42;34.17
22389;BME280;11362;48.102;11.620;2023-02-20T03:40:31;96137.91;;;23.42;34.15
22389;BME280;11362;48.102;11.620;2023-02-20T03:43:01;96136.72;;;23.43;33.97
22389;BME280;11362;48.102;11.620;2023-02-20T03:45:29;96145.84;;;23.43;34.24
22389;BME280;11362;48.102;11.620;2023-02-20T03:47:58;96147.81;;;23.43;34.19
22389;BME280;11362;48.102;11.620;2023-02-20T03:50:26;96146.22;;;23.42;34.00
22389;BME280;11362;48.102;11.620;2023-02-20T03:52:51;96149.78;;;23.42;34.08
22389;BME280;11362;48.102;11.620;2023-02-20T03:55:17;96155.34;;;23.42;34.01
22389;BME280;11362;48.102;11.620;2023-02-20T03:57:47;96139.09;;;23.41;34.07
22389;BME280;11362;48.102;11.620;2023-02-20T04:00:17;96149.38;;;23.40;34.27
22389;BME280;11362;48.102;11.620;2023-02-20T04:02:46;96164.84;;;23.42;34.01
22389;BME280;11362;48.102;11.620;2023-02-20T04:05:19;96154.53;;;23.42;34.08
22389;BME280;11362;48.102;11.620;2023-02-20T04:10:19;96162.47;;;23.43;33.93
22389;BME280;11362;48.102;11.620;2023-02-20T04:12:48;96162.47;;;23.43;33.99
22389;BME280;11362;48.102;11.620;2023-02-20T04:15:15;96160.88;;;23.42;33.97
22389;BME280;11362;48.102;11.620;2023-02-20T04:17:46;96172.75;;;23.43;33.98
22389;BME280;11362;48.102;11.620;2023-02-20T04:20:14;96168.41;;;23.42;33.93
22389;BME280;11362;48.102;11.620;2023-02-20T04:22:43;96160.88;;;23.42;33.94
22389;BME280;11362;48.102;11.620;2023-02-20T04:27:57;96166.44;;;23.42;33.85
22389;BME280;11362;48.102;11.620;2023-02-20T04:30:22;96165.63;;;23.42;34.02
22389;BME280;11362;48.102;11.620;2023-02-20T04:32:47;96165.63;;;23.42;34.11
22389;BME280;11362;48.102;11.620;2023-02-20T04:35:18;96161.66;;;23.43;33.96
22389;BME280;11362;48.102;11.620;2023-02-20T04:37:43;96165.63;;;23.42;33.88
22389;BME280;11362;48.102;11.620;2023-02-20T04:40:11;96157.31;;;23.42;33.91
22389;BME280;11362;48.102;11.620;2023-02-20T04:42:37;96154.53;;;23.42;33.95
22389;BME280;11362;48.102;11.620;2023-02-20T04:45:02;96161.28;;;23.41;34.01
22389;BME280;11362;48.102;11.620;2023-02-20T04:47:27;96162.84;;;23.42;34.01
22389;BME280;11362;48.102;11.620;2023-02-20T04:49:53;96166.00;;;23.40;34.00
22389;BME280;11362;48.102;11.620;2023-02-20T04:52:18;96164.84;;;23.42;33.84
22389;BME280;11362;48.102;11.620;2023-02-20T04:54:43;96162.47;;;23.40;33.97
22389;BME280;11362;48.102;11.620;2023-02-20T04:57:08;96163.25;;;23.40;33.83
22389;BME280;11362;48.102;11.620;2023-02-20T04:59:34;96149.00;;;23.42;33.92
22389;BME280;11362;48.102;11.620;2023-02-20T05:01:59;96156.91;;;23.40;33.92
22389;BME280;11362;48.102;11.620;2023-02-20T05:04:24;96152.16;;;23.40;33.80
22389;BME280;11362;48.102;11.620;2023-02-20T05:06:51;96150.19;;;23.41;33.67
22389;BME280;11362;48.102;11.620;2023-02-20T05:09:19;96141.06;;;23.40;33.90
22389;BME280;11362;48.102;11.620;2023-02-20T05:11:44;96147.41;;;23.41;33.79
22389;BME280;11362;48.102;11.620;2023-02-20T05:14:10;96146.22;;;23.42;33.83
22389;BME280;11362;48.102;11.620;2023-02-20T05:16:39;96159.31;;;23.42;33.81
22389;BME280;11362;48.102;11.620;2023-02-20T05:19:06;96157.31;;;23.42;33.80
22389;BME280;11362;48.102;11.620;2023-02-20T05:21:31;96160.09;;;23.42;33.72
22389;BME280;11362;48.102;11.620;2023-02-20T05:23:56;96162.06;;;23.42;33.80
22389;BME280;11362;48.102;11.620;2023-02-20T05:26:22;96162.06;;;23.42;33.74
22389;BME280;11362;48.102;11.620;2023-02-20T05:28:47;96157.69;;;23.40;33.68
22389;BME280;11362;48.102;11.620;2023-02-20T05:31:12;96161.66;;;23.39;33.66
22389;BME280;11362;48.102;11.620;2023-02-20T05:33:38;96166.00;;;23.40;33.65
22389;BME280;11362;48.102;11.620;2023-02-20T05:36:04;96162.47;;;23.40;33.45
22389;BME280;11362;48.102;11.620;2023-02-20T05:38:29;96171.56;;;23.40;33.69
22389;BME280;11362;48.102;11.620;2023-02-20T05:40:54;96178.72;;;23.42;33.57
22389;BME280;11362;48.102;11.620;2023-02-20T05:43:20;96183.47;;;23.41;33.70
22389;BME280;11362;48.102;11.620;2023-02-20T05:45:45;96174.34;;;23.40;33.72
22389;BME280;11362;48.102;11.620;2023-02-20T05:48:11;96175.13;;;23.41;33.70
22389;BME280;11362;48.102;11.620;2023-02-20T05:50:36;96172.75;;;23.39;33.67
22389;BME280;11362;48.102;11.620;2023-02-20T05:53:02;96181.50;;;23.42;33.54
22389;BME280;11362;48.102;11.620;2023-02-20T05:55:27;96179.88;;;23.40;33.63
22389;BME280;11362;48.102;11.620;2023-02-20T05:57:53;96154.16;;;23.40;33.80
22389;BME280;11362;48.102;11.620;2023-02-20T06:00:18;96150.97;;;23.38;33.62
22389;BME280;11362;48.102;11.620;2023-02-20T06:02:44;96166.00;;;23.40;33.58
22389;BME280;11362;48.102;11.620;2023-02-20T06:05:09;96165.25;;;23.40;34.03
22389;BME280;11362;48.102;11.620;2023-02-20T06:07:34;96174.34;;;23.44;34.27
22389;BME280;11362;48.102;11.620;2023-02-20T06:10:00;96174.75;;;23.46;34.62
22389;BME280;11362;48.102;11.620;2023-02-20T06:12:25;96202.06;;;23.47;34.79
22389;BME280;11362;48.102;11.620;2023-02-20T06:14:50;96203.69;;;23.48;34.65
22389;BME280;11362;48.102;11.620;2023-02-20T06:17:16;96208.03;;;23.49;35.06
22389;BME280;11362;48.102;11.620;2023-02-20T06:19:41;96208.03;;;23.49;35.29
22389;BME280;11362;48.102;11.620;2023-02-20T06:22:07;96206.03;;;23.50;35.18
22389;BME280;11362;48.102;11.620;2023-02-20T06:24:32;96205.66;;;23.51;35.50
22389;BME280;11362;48.102;11.620;2023-02-20T06:26:57;96207.25;;;23.52;35.55
22389;BME280;11362;48.102;11.620;2023-02-20T06:29:22;96210.81;;;23.53;35.65
22389;BME280;11362;48.102;11.620;2023-02-20T06:31:48;96210.00;;;23.52;35.58
22389;BME280;11362;48.102;11.620;2023-02-20T06:34:14;96202.88;;;23.51;35.32
22389;BME280;11362;48.102;11.620;2023-02-20T06:36:40;96181.88;;;23.50;35.53
22389;BME280;11362;48.102;11.620;2023-02-20T06:39:07;96179.88;;;23.51;35.35
22389;BME280;11362;48.102;11.620;2023-02-20T06:41:33;96180.31;;;23.49;35.16
22389;BME280;11362;48.102;11.620;2023-02-20T06:43:58;96202.88;;;23.48;35.27
22389;BME280;11362;48.102;11.620;2023-02-20T06:46:24;96202.88;;;23.48;35.21
22389;BME280;11362;48.102;11.620;2023-02-20T06:48:52;96212.38;;;23.47;35.24
22389;BME280;11362;48.102;11.620;2023-02-20T06:51:20;96210.38;;;23.47;35.22
22389;BME280;11362;48.102;11.620;2023-02-20T06:53:47;96212.78;;;23.49;35.21
22389;BME280;11362;48.102;11.620;2023-02-20T06:56:17;96216.34;;;23.49;35.14
22389;BME280;11362;48.102;11.620;2023-02-20T06:58:45;96204.47;;;23.49;35.22
22389;BME280;11362;48.102;11.620;2023-02-20T07:01:11;96214.38;;;23.50;35.15
22389;BME280;11362;48.102;11.620;2023-02-20T07:03:36;96212.00;;;23.48;35.20
22389;BME280;11362;48.102;11.620;2023-02-20T07:06:01;96213.16;;;23.47;35.20
22389;BME280;11362;48.102;11.620;2023-02-20T07:08:27;96241.31;;;23.42;34.09
22389;BME280;11362;48.102;11.620;2023-02-20T07:10:52;96249.34;;;22.80;29.72
22389;BME280;11362;48.102;11.620;2023-02-20T07:13:17;96248.41;;;22.48;30.37
22389;BME280;11362;48.102;11.620;2023-02-20T07:15:43;96252.91;;;22.77;31.00
22389;BME280;11362;48.102;11.620;2023-02-20T07:18:08;96250.19;;;22.91;31.10
22389;BME280;11362;48.102;11.620;2023-02-20T07:20:33;96254.59;;;22.99;31.08
22389;BME280;11362;48.102;11.620;2023-02-20T07:22:58;96258.56;;;23.05;31.55
22389;BME280;11362;48.102;11.620;2023-02-20T07:25:24;96256.22;;;23.10;31.84
22389;BME280;11362;48.102;11.620;2023-02-20T07:27:49;96260.59;;;23.15;31.82
22389;BME280;11362;48.102;11.620;2023-02-20T07:30:14;96257.06;;;23.18;31.94
22389;BME280;11362;48.102;11.620;2023-02-20T07:32:40;96255.47;;;23.20;32.06
22389;BME280;11362;48.102;11.620;2023-02-20T07:35:05;96259.06;;;23.21;32.12
22389;BME280;11362;48.102;11.620;2023-02-20T07:37:31;96261.41;;;23.22;32.29
22389;BME280;11362;48.102;11.620;2023-02-20T07:39:56;96256.69;;;23.23;32.37
22389;BME280;11362;48.102;11.620;2023-02-20T07:42:21;96213.09;;;23.23;32.48
22389;BME280;11362;48.102;11.620;2023-02-20T07:44:47;96209.94;;;23.25;32.54
22389;BME280;11362;48.102;11.620;2023-02-20T07:47:12;96209.94;;;23.25;32.41
22389;BME280;11362;48.102;11.620;2023-02-20T07:49:37;96199.66;;;23.25;32.67
22389;BME280;11362;48.102;11.620;2023-02-20T07:52:03;96228.97;;;23.26;32.96
22389;BME280;11362;48.102;11.620;2023-02-20T07:54:28;96222.63;;;23.29;33.03
22389;BME280;11362;48.102;11.620;2023-02-20T07:56:54;96216.69;;;23.31;33.09
22389;BME280;11362;48.102;11.620;2023-02-20T07:59:19;96215.50;;;23.32;33.32
22389;BME280;11362;48.102;11.620;2023-02-20T08:01:45;96217.09;;;23.33;33.26
22389;BME280;11362;48.102;11.620;2023-02-20T08:04:10;96213.13;;;23.33;33.46
22389;BME280;11362;48.102;11.620;2023-02-20T08:06:35;96204.44;;;23.38;33.38
22389;BME280;11362;48.102;11.620;2023-02-20T08:09:01;96200.50;;;23.46;33.40
22389;BME280;11362;48.102;11.620;2023-02-20T08:11:26;96205.25;;;23.49;33.29
22389;BME280;11362;48.102;11.620;2023-02-20T08:13:52;96198.91;;;23.52;33.44
22389;BME280;11362;48.102;11.620;2023-02-20T08:16:17;96192.19;;;23.57;33.54
22389;BME280;11362;48.102;11.620;2023-02-20T08:18:42;96181.47;;;23.55;33.65
22389;BME280;11362;48.102;11.620;2023-02-20T08:21:07;96175.16;;;23.58;33.47
22389;BME280;11362;48.102;11.620;2023-02-20T08:23:33;96187.03;;;23.62;33.72
22389;BME280;11362;48.102;11.620;2023-02-20T08:25:58;96175.16;;;23.65;34.16
22389;BME280;11362;48.102;11.620;2023-02-20T08:28:23;96186.66;;;23.67;34.54
22389;BME280;11362;48.102;11.620;2023-02-20T08:30:48;96187.03;;;23.69;34.55
22389;BME280;11362;48.102;11.620;2023-02-20T08:33:14;96188.66;;;23.74;34.41
22389;BME280;11362;48.102;11.620;2023-02-20T08:35:40;96192.59;;;23.69;34.64
22389;BME280;11362;48.102;11.620;2023-02-20T08:38:21;96183.09;;;23.70;34.53
22389;BME280;11362;48.102;11.620;2023-02-20T08:40:46;96176.75;;;23.70;34.42
22389;BME280;11362;48.102;11.620;2023-02-20T08:43:12;96172.78;;;23.71;34.57
22389;BME280;11362;48.102;11.620;2023-02-20T08:45:37;96164.06;;;23.76;34.44
22389;BME280;11362;48.102;11.620;2023-02-20T08:48:02;96140.69;;;23.73;34.32
22389;BME280;11362;48.102;11.620;2023-02-20T08:50:28;96146.63;;;23.68;34.31
22389;BME280;11362;48.102;11.620;2023-02-20T08:52:53;96132.34;;;23.66;34.40
22389;BME280;11362;48.102;11.620;2023-02-20T08:55:18;96127.63;;;23.63;34.50
22389;BME280;11362;48.102;11.620;2023-02-20T08:57:44;96157.72;;;23.68;34.44
22389;BME280;11362;48.102;11.620;2023-02-20T09:00:10;96151.78;;;23.73;34.74
22389;BME280;11362;48.102;11.620;2023-02-20T09:02:35;96148.63;;;23.71;34.70
22389;BME280;11362;48.102;11.620;2023-02-20T09:05:00;96150.97;;;23.69;34.86
22389;BME280;11362;48.102;11.620;2023-02-20T09:07:26;96168.81;;;23.68;34.76
22389;BME280;11362;48.102;11.620;2023-02-20T09:09:51;96158.53;;;23.65;34.87
22389;BME280;11362;48.102;11.620;2023-02-20T09:12:17;96148.19;;;23.66;34.84
22389;BME280;11362;48.102;11.620;2023-02-20T09:14:43;96141.50;;;23.74;34.74
22389;BME280;11362;48.102;11.620;2023-02-20T09:17:08;96128.38;;;23.81;34.75
22389;BME280;11362;48.102;11.620;2023-02-20T09:19:33;96136.34;;;23.86;34.47
22389;BME280;11362;48.102;11.620;2023-02-20T09:21:59;96134.75;;;23.89;34.38
22389;BME280;11362;48.102;11.620;2023-02-20T09:24:25;96126.00;;;23.90;34.20
22389;BME280;11362;48.102;11.620;2023-02-20T09:26:50;96136.34;;;23.93;34.25
22389;BME280;11362;48.102;11.620;2023-02-20T09:29:16;96130.78;;;23.93;34.18
22389;BME280;11362;48.102;11.620;2023-02-20T09:31:41;96127.59;;;23.95;34.28
22389;BME280;11362;48.102;11.620;2023-02-20T09:34:06;96130.38;;;23.98;34.29
22389;BME280;11362;48.102;11.620;2023-02-20T09:36:32;96134.75;;;23.99;34.27
22389;BME280;11362;48.102;11.620;2023-02-20T09:38:57;96129.97;;;24.00;34.03
22389;BME280;11362;48.102;11.620;2023-02-20T09:41:28;96135.13;;;24.01;34.23
22389;BME280;11362;48.102;11.620;2023-02-20T09:44:26;96121.25;;;24.01;34.17
22389;BME280;11362;48.102;11.620;2023-02-20T09:47:01;96129.56;;;24.05;34.21
22389;BME280;11362;48.102;11.620;2023-02-20T09:49:32;96128.38;;;24.06;34.27
22389;BME280;11362;48.102;11.620;2023-02-20T09:52:02;96106.97;;;24.06;34.25
22389;BME280;11362;48.102;11.620;2023-02-20T09:54:38;96106.97;;;24.06;34.28
22389;BME280;11362;48.102;11.620;2023-02-20T09:57:09;96095.06;;;24.09;34.28
22389;BME280;11362;48.102;11.620;2023-02-20T09:59:42;96072.84;;;24.09;34.26
22389;BME280;11362;48.102;11.620;2023-02-20T10:02:38;96070.09;;;24.06;34.42
22389;BME280;11362;48.102;11.620;2023-02-20T10:05:22;96073.25;;;24.11;34.40
22389;BME280;11362;48.102;11.620;2023-02-20T10:07:49;96083.94;;;24.13;34.42
22389;BME280;11362;48.102;11.620;2023-02-20T10:10:29;96079.59;;;24.15;34.39
22389;BME280;11362;48.102;11.620;2023-02-20T10:13:27;96073.66;;;24.17;34.39
22389;BME280;11362;48.102;11.620;2023-02-20T10:18:50;96062.13;;;24.18;34.54
22389;BME280;11362;48.102;11.620;2023-02-20T10:21:43;96056.53;;;24.22;34.60
22389;BME280;11362;48.102;11.620;2023-02-20T10:24:21;96058.94;;;24.23;34.42
22389;BME280;11362;48.102;11.620;2023-02-20T10:26:53;96065.69;;;24.22;34.53
22389;BME280;11362;48.102;11.620;2023-02-20T10:29:26;96071.22;;;24.22;34.47
22389;BME280;11362;48.102;11.620;2023-02-20T10:32:02;96072.44;;;24.21;34.53
22389;BME280;11362;48.102;11.620;2023-02-20T10:34:36;96072.81;;;24.23;34.77
22389;BME280;11362;48.102;11.620;2023-02-20T10:37:13;96068.84;;;24.24;34.89
22389;BME280;11362;48.102;11.620;2023-02-20T10:39:51;96062.91;;;24.22;34.71
22389;BME280;11362;48.102;11.620;2023-02-20T10:42:28;96054.19;;;24.20;34.96
22389;BME280;11362;48.102;11.620;2023-02-20T10:45:13;96054.59;;;24.19;35.14
22389;BME280;11362;48.102;11.620;2023-02-20T10:47:43;96049.81;;;24.19;35.12
22389;BME280;11362;48.102;11.620;2023-02-20T10:50:15;96047.44;;;24.21;34.94
22389;BME280;11362;48.102;11.620;2023-02-20T10:52:50;96042.28;;;24.20;34.83
22389;BME280;11362;48.102;11.620;2023-02-20T11:00:31;96030.34;;;24.26;34.89
22389;BME280;11362;48.102;11.620;2023-02-20T11:03:05;96022.81;;;24.30;35.02
22389;BME280;11362;48.102;11.620;2023-02-20T11:05:37;96033.91;;;24.34;35.07
22389;BME280;11362;48.102;11.620;2023-02-20T11:08:04;96022.00;;;24.33;35.00
22389;BME280;11362;48.102;11.620;2023-02-20T11:10:29;96019.19;;;24.37;34.89
22389;BME280;11362;48.102;11.620;2023-02-20T11:12:57;96011.66;;;24.37;34.91
22389;BME280;11362;48.102;11.620;2023-02-20T11:15:28;96002.94;;;24.39;34.90
22389;BME280;11362;48.102;11.620;2023-02-20T11:17:55;95994.19;;;24.40;35.01
22389;BME280;11362;48.102;11.620;2023-02-20T11:22:59;95988.22;;;24.42;34.85
22389;BME280;11362;48.102;11.620;2023-02-20T11:25:32;95982.28;;;24.43;34.81
22389;BME280;11362;48.102;11.620;2023-02-20T11:28:08;95981.47;;;24.46;34.98
22389;BME280;11362;48.102;11.620;2023-02-20T11:30:40;95978.28;;;24.48;35.04
22389;BME280;11362;48.102;11.620;2023-02-20T11:33:21;95975.91;;;24.46;34.93
22389;BME280;11362;48.102;11.620;2023-02-20T11:35:50;95975.50;;;24.48;34.66
22389;BME280;11362;48.102;11.620;2023-02-20T11:43:25;95964.78;;;24.50;34.74
22389;BME280;11362;48.102;11.620;2023-02-20T11:46:22;95956.03;;;24.51;34.90
22389;BME280;11362;48.102;11.620;2023-02-20T11:49:06;95967.94;;;24.52;34.87
22389;BME280;11362;48.102;11.620;2023-02-20T11:51:36;95953.63;;;24.53;34.95
22389;BME280;11362;48.102;11.620;2023-02-20T11:54:11;95954.44;;;24.54;34.93
22389;BME280;11362;48.102;11.620;2023-02-20T11:56:56;95947.28;;;24.56;34.89
22389;BME280;11362;48.102;11.620;2023-02-20T11:59:42;95943.34;;;24.57;35.01
22389;BME280;11362;48.102;11.620;2023-02-20T12:04:41;95935.41;;;24.56;34.86
22389;BME280;11362;48.102;11.620;2023-02-20T12:09:44;95901.28;;;24.55;34.60
22389;BME280;11362;48.102;11.620;2023-02-20T12:12:12;95895.72;;;24.55;34.63
22389;BME280;11362;48.102;11.620;2023-02-20T12:14:38;95891.75;;;24.56;34.46
22389;BME280;11362;48.102;11.620;2023-02-20T12:19:53;95914.75;;;24.57;34.38
22389;BME280;11362;48.102;11.620;2023-02-20T12:22:38;95910.00;;;24.57;34.26
22389;BME280;11362;48.102;11.620;2023-02-20T12:27:53;95896.13;;;24.57;34.06
22389;BME280;11362;48.102;11.620;2023-02-20T12:31:33;95889.38;;;24.58;34.17
22389;BME280;11362;48.102;11.620;2023-02-20T12:33:43;95889.38;;;24.58;33.97
22389;BME280;11362;48.102;11.620;2023-02-20T12:36:30;95888.56;;;24.58;34.00
22389;BME280;11362;48.102;11.620;2023-02-20T12:50:01;95855.19;;;24.61;33.76
22389;BME280;11362;48.102;11.620;2023-02-20T12:52:53;95851.22;;;24.62;33.84
22389;BME280;11362;48.102;11.620;2023-02-20T12:55:34;95859.94;;;24.64;33.72
22389;BME280;11362;48.102;11.620;2023-02-20T13:00:48;95848.84;;;24.64;33.42
22389;BME280;11362;48.102;11.620;2023-02-20T13:03:19;95844.88;;;24.65;33.62
22389;BME280;11362;48.102;11.620;2023-02-20T13:05:47;95841.28;;;24.65;33.54
22389;BME280;11362;48.102;11.620;2023-02-20T13:08:22;95837.72;;;24.64;33.63
22389;BME280;11362;48.102;11.620;2023-02-20T13:10:55;95832.94;;;24.65;33.53
22389;BME280;11362;48.102;11.620;2023-02-20T13:13:26;95833.81;;;24.58;33.66
22389;BME280;11362;48.102;11.620;2023-02-20T13:16:18;95830.19;;;24.61;33.67
22389;BME280;11362;48.102;11.620;2023-02-20T13:19:05;95835.31;;;24.66;33.37
22389;BME280;11362;48.102;11.620;2023-02-20T13:21:38;95824.22;;;24.66;33.29
22389;BME280;11362;48.102;11.620;2023-02-20T13:26:51;95822.66;;;24.62;33.30
22389;BME280;11362;48.102;11.620;2023-02-20T13:29:25;95829.38;;;24.68;33.34
22389;BME280;11362;48.102;11.620;2023-02-20T13:31:52;95823.81;;;24.68;33.50
22389;BME280;11362;48.102;11.620;2023-02-20T13:36:44;95819.41;;;24.70;33.34
22389;BME280;11362;48.102;11.620;2023-02-20T13:47:04;95824.16;;;24.73;33.22
22389;BME280;11362;48.102;11.620;2023-02-20T13:52:41;95826.94;;;24.73;33.43
22389;BME280;11362;48.102;11.620;2023-02-20T13:57:53;95822.13;;;24.74;33.58
22389;BME280;11362;48.102;11.620;2023-02-20T14:02:47;95816.19;;;24.75;33.46
22389;BME280;11362;48.102;11.620;2023-02-20T14:05:31;95820.94;;;24.78;33.63
22389;BME280;11362;48.102;11.620;2023-02-20T14:07:57;95816.19;;;24.75;33.38
22389;BME280;11362;48.102;11.620;2023-02-20T14:10:27;95810.63;;;24.75;33.53
22389;BME280;11362;48.102;11.620;2023-02-20T14:13:09;95807.88;;;24.72;33.61
22389;BME280;11362;48.102;11.620;2023-02-20T14:18:19;95803.63;;;24.60;33.91
22389;BME280;11362;48.102;11.620;2023-02-20T14:20:45;95789.78;;;24.57;33.79
22389;BME280;11362;48.102;11.620;2023-02-20T14:23:23;95787.41;;;24.52;33.74
22389;BME280;11362;48.102;11.620;2023-02-20T14:25:53;95786.25;;;24.49;33.82
22389;BME280;11362;48.102;11.620;2023-02-20T14:28:18;95777.91;;;24.49;33.96
22389;BME280;11362;48.102;11.620;2023-02-20T14:30:43;95779.94;;;24.45;34.08
22389;BME280;11362;48.102;11.620;2023-02-20T14:33:23;95781.13;;;24.44;34.11